Time;durP1;ratioP1;P1;durP2;ratioP2;P2;SDS_P1;SDS_P2;PMS_P1;PMS_P2;Temp;Humidity;BMP_temperature;BMP_pressure;BME280_temperature;BME280_humidity;BME280_pressure;Samples;Min_cycle;Max_cycle;Signal;HPM_P1;HPM_P2
2022/06/30 00:00:02;;;;;;;;;;;;;;;20.74;64.62;94943.38;5002423;28;19926;-80
2022/06/30 00:02:27;;;;;;;;;;;;;;;20.74;64.60;94944.16;5001011;28;19989;-81
2022/06/30 00:04:52;;;;;;;;;;;;;;;20.74;64.63;94938.88;5006145;28;20452;-82
2022/06/30 00:07:18;;;;;;;;;;;;;;;20.73;64.42;94937.31;5023767;28;19942;-82
2022/06/30 00:09:43;;;;;;;;;;;;;;;20.72;64.68;94942.88;5001876;28;19928;-80
2022/06/30 00:12:09;;;;;;;;;;;;;;;20.68;64.64;94943.47;5004886;28;19932;-81
2022/06/30 00:14:34;;;;;;;;;;;;;;;20.65;64.96;94944.03;5018961;28;19921;-82
2022/06/30 00:16:59;;;;;;;;;;;;;;;20.62;64.64;94941.19;5025509;28;19968;-82
2022/06/30 00:19:25;;;;;;;;;;;;;;;20.61;64.83;94950.19;5018962;28;19922;-82
2022/06/30 00:21:50;;;;;;;;;;;;;;;20.60;64.99;94951.28;5031367;28;19933;-82
2022/06/30 00:24:15;;;;;;;;;;;;;;;20.57;64.77;94949.22;5031033;28;19926;-82
2022/06/30 00:26:41;;;;;;;;;;;;;;;20.56;64.71;94942.38;5001397;28;20392;-82
2022/06/30 00:29:06;;;;;;;;;;;;;;;20.55;64.33;94935.50;5004034;28;19922;-82
2022/06/30 00:31:31;;;;;;;;;;;;;;;20.54;64.25;94944.53;5002962;28;19922;-82
2022/06/30 00:33:57;;;;;;;;;;;;;;;20.50;64.22;94932.94;5016987;28;19921;-82
2022/06/30 00:36:22;;;;;;;;;;;;;;;20.50;64.39;94932.94;5002978;28;19928;-82
2022/06/30 00:38:47;;;;;;;;;;;;;;;20.46;64.57;94924.81;5018766;28;19932;-82
2022/06/30 00:41:13;;;;;;;;;;;;;;;20.47;64.13;94936.97;5016452;28;19929;-82
2022/06/30 00:43:44;;;;;;;;;;;;;;;20.46;64.20;94937.25;5016396;28;19944;-82
2022/06/30 00:46:10;;;;;;;;;;;;;;;20.48;64.24;94935.88;5001357;28;19922;-82
2022/06/30 00:48:41;;;;;;;;;;;;;;;20.47;64.14;94938.81;5016867;28;19971;-82
2022/06/30 00:51:07;;;;;;;;;;;;;;;20.43;64.49;94937.84;5013833;28;19947;-81
2022/06/30 00:53:32;;;;;;;;;;;;;;;20.39;64.76;94941.03;5014537;28;19976;-82
2022/06/30 00:55:58;;;;;;;;;;;;;;;20.37;65.01;94937.91;5021757;28;19925;-82
2022/06/30 00:58:23;;;;;;;;;;;;;;;20.35;65.03;94942.69;5005375;28;19965;-81
2022/06/30 01:00:49;;;;;;;;;;;;;;;20.34;65.13;94940.34;5017960;28;19929;-82
2022/06/30 01:03:14;;;;;;;;;;;;;;;20.30;65.16;94931.41;5005797;28;20016;-81
2022/06/30 01:08:08;;;;;;;;;;;;;;;20.22;65.34;94927.59;5030514;23;19936;-82
2022/06/30 01:13:17;;;;;;;;;;;;;;;20.14;65.61;94920.31;5006021;28;20013;-81
2022/06/30 01:15:43;;;;;;;;;;;;;;;20.11;65.53;94917.47;5003569;28;19961;-82
2022/06/30 01:18:08;;;;;;;;;;;;;;;20.10;66.08;94921.97;5009800;23;19922;-82
2022/06/30 01:20:33;;;;;;;;;;;;;;;20.12;65.73;94926.97;5007189;28;19929;-82
2022/06/30 01:22:59;;;;;;;;;;;;;;;20.10;65.73;94927.25;5005043;28;19922;-82
2022/06/30 01:25:25;;;;;;;;;;;;;;;20.08;65.53;94926.75;4987958;28;19936;-81
2022/06/30 01:27:51;;;;;;;;;;;;;;;20.06;65.59;94923.63;5006150;28;19961;-82
2022/06/30 01:30:16;;;;;;;;;;;;;;;20.05;65.59;94922.06;4988683;28;20317;-81
2022/06/30 01:32:41;;;;;;;;;;;;;;;20.05;65.43;94924.69;4987201;28;20004;-81
2022/06/30 01:35:07;;;;;;;;;;;;;;;20.02;65.76;94927.91;4982755;28;20056;-81
2022/06/30 01:37:44;;;;;;;;;;;;;;;20.00;65.75;94932.69;5005641;28;20561;-81
2022/06/30 01:40:10;;;;;;;;;;;;;;;19.93;66.05;94919.84;5005240;28;20302;-81
2022/06/30 01:42:35;;;;;;;;;;;;;;;19.92;66.18;94922.78;4995377;28;19948;-81
2022/06/30 01:45:01;;;;;;;;;;;;;;;19.90;66.04;94922.28;4986579;28;19993;-82
2022/06/30 01:47:26;;;;;;;;;;;;;;;19.84;66.16;94912.88;5002678;28;19926;-81
2022/06/30 01:49:51;;;;;;;;;;;;;;;19.82;65.72;94925.56;4987136;28;19921;-82
2022/06/30 01:52:17;;;;;;;;;;;;;;;19.81;66.05;94918.72;4987437;28;19929;-82
2022/06/30 01:54:42;;;;;;;;;;;;;;;19.78;65.78;94923.50;4976000;28;19921;-82
2022/06/30 01:57:07;;;;;;;;;;;;;;;19.79;65.94;94925.06;4985920;28;19921;-81
2022/06/30 01:59:32;;;;;;;;;;;;;;;19.75;66.01;94916.16;4972137;28;19953;-81
2022/06/30 02:01:58;;;;;;;;;;;;;;;19.71;65.70;94917.81;4986734;28;19965;-81
2022/06/30 02:07:07;;;;;;;;;;;;;;;19.58;66.17;94915.88;5004564;28;19932;-81
2022/06/30 02:09:32;;;;;;;;;;;;;;;19.60;66.31;94924.28;4991009;28;20206;-81
2022/06/30 02:14:42;;;;;;;;;;;;;;;19.58;66.37;94923.81;4989197;28;19932;-81
2022/06/30 02:19:42;;;;;;;;;;;;;;;19.53;66.11;94923.06;5224128;23;20277;-80
2022/06/30 02:22:07;;;;;;;;;;;;;;;19.53;66.14;94926.50;5003966;28;20353;-81
2022/06/30 02:24:33;;;;;;;;;;;;;;;19.50;66.14;94927.03;5003504;28;19921;-81
2022/06/30 02:26:58;;;;;;;;;;;;;;;19.46;66.36;94926.03;5027558;28;19921;-80
2022/06/30 02:29:24;;;;;;;;;;;;;;;19.46;66.03;94926.03;5010664;28;20380;-80
2022/06/30 02:31:49;;;;;;;;;;;;;;;19.41;65.52;94934.03;5004201;28;20068;-81
2022/06/30 02:34:15;;;;;;;;;;;;;;;19.36;65.63;94934.88;5004596;28;20017;-81
2022/06/30 02:36:40;;;;;;;;;;;;;;;19.30;66.60;94938.63;5004875;28;19958;-81
2022/06/30 02:39:05;;;;;;;;;;;;;;;19.29;66.52;94936.28;5006026;28;20293;-81
2022/06/30 02:41:30;;;;;;;;;;;;;;;19.28;66.41;94934.72;5007697;28;19929;-82
2022/06/30 02:43:58;;;;;;;;;;;;;;;19.24;66.21;94923.97;5032490;28;19921;-80
2022/06/30 02:46:23;;;;;;;;;;;;;;;19.30;66.36;94940.50;5030819;28;19933;-82
2022/06/30 02:48:48;;;;;;;;;;;;;;;19.30;66.15;94937.84;5030635;28;20382;-82
2022/06/30 02:51:14;;;;;;;;;;;;;;;19.26;66.35;94936.84;5011766;28;19968;-82
2022/06/30 02:53:39;;;;;;;;;;;;;;;19.25;66.65;94936.06;5010917;28;19925;-81
2022/06/30 02:56:05;;;;;;;;;;;;;;;19.23;66.54;94937.44;5021522;28;19976;-81
2022/06/30 02:58:30;;;;;;;;;;;;;;;19.24;66.25;94942.41;5002447;28;20499;-80
2022/06/30 03:00:55;;;;;;;;;;;;;;;19.26;66.32;94944.75;5027382;28;19922;-81
2022/06/30 03:03:20;;;;;;;;;;;;;;;19.31;66.30;94942.06;5001197;28;20012;-80
2022/06/30 03:05:46;;;;;;;;;;;;;;;19.36;66.00;94942.78;5004896;28;19922;-80
2022/06/30 03:08:11;;;;;;;;;;;;;;;19.41;66.14;94944.56;5029711;28;19984;-81
2022/06/30 03:10:36;;;;;;;;;;;;;;;19.45;65.80;94942.94;5027160;28;19921;-80
2022/06/30 03:13:02;;;;;;;;;;;;;;;19.52;66.04;94935.44;5003698;28;20091;-80
2022/06/30 03:15:27;;;;;;;;;;;;;;;19.55;65.62;94929.66;5026399;28;19921;-82
2022/06/30 03:17:52;;;;;;;;;;;;;;;19.61;65.97;94928.50;5005075;28;20321;-83
2022/06/30 03:20:18;;;;;;;;;;;;;;;19.68;65.62;94931.56;5027418;28;19921;-83
2022/06/30 03:22:43;;;;;;;;;;;;;;;19.75;65.42;94928.56;5018316;28;19953;-81
2022/06/30 03:25:08;;;;;;;;;;;;;;;19.83;65.46;94929.78;5003602;28;19922;-80
2022/06/30 03:27:34;;;;;;;;;;;;;;;19.91;65.10;94934.41;5027956;28;19921;-79
2022/06/30 03:29:59;;;;;;;;;;;;;;;19.95;64.77;94930.91;5005930;28;19922;-80
2022/06/30 03:32:24;;;;;;;;;;;;;;;19.96;64.16;94940.38;5005516;28;19937;-80
2022/06/30 03:34:50;;;;;;;;;;;;;;;20.00;64.08;94937.94;5004114;28;20267;-81
2022/06/30 03:37:15;;;;;;;;;;;;;;;20.06;64.14;94937.59;5002471;28;19941;-80
2022/06/30 03:39:41;;;;;;;;;;;;;;;20.13;63.63;94942.50;5018068;28;20295;-80
2022/06/30 03:42:07;;;;;;;;;;;;;;;20.20;63.14;94939.50;5010482;28;19996;-80
2022/06/30 03:44:32;;;;;;;;;;;;;;;20.23;63.45;94939.72;5018546;28;19929;-80
2022/06/30 03:46:58;;;;;;;;;;;;;;;20.26;63.30;94939.13;5001381;28;19922;-80
2022/06/30 03:49:23;;;;;;;;;;;;;;;20.33;63.12;94939.53;5001721;28;19922;-79
2022/06/30 03:51:48;;;;;;;;;;;;;;;20.42;62.92;94944.97;5019093;28;19922;-81
2022/06/30 03:54:14;;;;;;;;;;;;;;;20.57;62.42;94941.28;5072483;23;20834;-79
2022/06/30 03:56:39;;;;;;;;;;;;;;;20.67;62.05;94943.75;4976316;28;19976;-79
2022/06/30 03:59:04;;;;;;;;;;;;;;;20.77;61.56;94943.56;4974663;28;19926;-81
2022/06/30 04:01:30;;;;;;;;;;;;;;;20.88;61.34;94946.81;4973360;28;19972;-81
2022/06/30 04:03:55;;;;;;;;;;;;;;;21.02;61.07;94938.88;4975306;28;19937;-84
2022/06/30 04:06:20;;;;;;;;;;;;;;;21.79;59.90;94941.53;4989902;28;19922;-82
2022/06/30 04:08:46;;;;;;;;;;;;;;;24.18;52.41;94935.19;4974432;28;19930;-82
2022/06/30 04:11:11;;;;;;;;;;;;;;;26.76;45.42;94931.38;4990088;28;21390;-82
2022/06/30 04:13:37;;;;;;;;;;;;;;;29.06;39.85;94936.50;5044262;23;19929;-82
2022/06/30 04:16:02;;;;;;;;;;;;;;;31.16;35.49;94932.72;5002898;28;20415;-82
2022/06/30 04:18:27;;;;;;;;;;;;;;;32.92;31.49;94936.53;4994295;28;19984;-83
2022/06/30 04:20:53;;;;;;;;;;;;;;;34.33;28.61;94935.88;5004388;28;19921;-83
2022/06/30 04:23:18;;;;;;;;;;;;;;;35.73;26.35;94930.25;4992851;28;19944;-82
2022/06/30 04:25:43;;;;;;;;;;;;;;;36.85;24.64;94926.72;5015254;28;19951;-83
2022/06/30 04:28:21;;;;;;;;;;;;;;;38.19;22.87;94927.84;4999948;28;19925;-86
2022/06/30 04:33:30;;;;;;;;;;;;;;;40.34;20.11;94924.00;5013919;28;19929;-81
2022/06/30 04:35:56;;;;;;;;;;;;;;;41.35;19.09;94929.59;5012497;28;19921;-81
2022/06/30 04:38:21;;;;;;;;;;;;;;;42.38;18.24;94935.03;5029212;28;19926;-82
2022/06/30 04:43:30;;;;;;;;;;;;;;;44.16;16.19;94936.81;5009985;28;19983;-84
2022/06/30 04:45:56;;;;;;;;;;;;;;;44.62;15.91;94931.59;4999770;28;19921;-84
2022/06/30 04:48:21;;;;;;;;;;;;;;;44.93;15.61;94932.38;4998939;28;20811;-84
2022/06/30 04:50:46;;;;;;;;;;;;;;;45.16;15.67;94929.06;4998891;28;19926;-84
2022/06/30 04:53:12;;;;;;;;;;;;;;;45.67;15.00;94936.81;4999755;28;19926;-82
2022/06/30 04:55:43;;;;;;;;;;;;;;;46.34;14.96;94933.09;5001246;28;19921;-85
2022/06/30 04:58:08;;;;;;;;;;;;;;;46.53;14.98;94938.59;5000361;28;19921;-85
2022/06/30 05:00:39;;;;;;;;;;;;;;;46.34;14.94;94933.09;4999186;28;19928;-83
2022/06/30 05:03:04;;;;;;;;;;;;;;;46.71;14.65;94940.53;4999831;28;19944;-84
2022/06/30 05:05:30;;;;;;;;;;;;;;;47.06;14.31;94932.59;4999203;28;20393;-84
2022/06/30 05:07:55;;;;;;;;;;;;;;;47.62;13.93;94940.09;4997134;28;19922;-83
2022/06/30 05:10:20;;;;;;;;;;;;;;;47.86;13.85;94942.81;4999098;28;19922;-84
2022/06/30 05:12:46;;;;;;;;;;;;;;;48.55;13.69;94940.81;4998079;28;19929;-84
2022/06/30 05:15:11;;;;;;;;;;;;;;;49.09;12.68;94933.91;4998083;28;19961;-85
2022/06/30 05:20:22;;;;;;;;;;;;;;;50.07;12.12;94945.22;4999535;28;19929;-84
2022/06/30 05:22:47;;;;;;;;;;;;;;;50.71;11.72;94943.31;4999637;28;19925;-85
2022/06/30 05:27:56;;;;;;;;;;;;;;;51.81;10.83;94943.72;4998674;28;19929;-85
2022/06/30 05:30:22;;;;;;;;;;;;;;;52.41;10.10;94942.38;5003030;28;19925;-84
2022/06/30 05:32:47;;;;;;;;;;;;;;;52.87;10.06;94943.13;5000684;28;19929;-85
2022/06/30 05:35:15;;;;;;;;;;;;;;;53.30;9.62;94944.31;4997085;28;20694;-85
2022/06/30 05:37:41;;;;;;;;;;;;;;;53.56;9.51;94948.81;5011123;28;20441;-85
2022/06/30 05:40:06;;;;;;;;;;;;;;;53.84;9.15;94943.13;4999180;28;20011;-85
2022/06/30 05:42:32;;;;;;;;;;;;;;;53.84;9.08;94955.00;5001827;28;19926;-84
2022/06/30 05:44:57;;;;;;;;;;;;;;;54.05;8.95;94940.78;4997374;28;20416;-85
2022/06/30 05:47:23;;;;;;;;;;;;;;;54.20;8.80;94946.75;4999869;28;19926;-84
2022/06/30 05:49:48;;;;;;;;;;;;;;;54.44;8.58;94951.66;4999185;28;20377;-84
2022/06/30 05:52:13;;;;;;;;;;;;;;;54.65;8.54;94952.03;4997682;28;19921;-84
2022/06/30 05:54:47;;;;;;;;;;;;;;;54.91;8.39;94943.94;4997119;28;20012;-84
2022/06/30 05:57:18;;;;;;;;;;;;;;;54.77;8.79;94947.88;4999494;28;19960;-84
2022/06/30 05:59:46;;;;;;;;;;;;;;;54.82;8.80;94950.59;5017104;28;19944;-85
2022/06/30 06:02:11;;;;;;;;;;;;;;;53.50;9.14;94953.63;4999941;28;19933;-84
2022/06/30 06:04:37;;;;;;;;;;;;;;;53.82;9.26;94952.00;4999022;28;19922;-84
2022/06/30 06:07:10;;;;;;;;;;;;;;;53.97;9.29;94951.66;4999818;28;19922;-84
2022/06/30 06:09:40;;;;;;;;;;;;;;;54.50;9.41;94947.53;5008675;28;19970;-85
2022/06/30 06:12:17;;;;;;;;;;;;;;;54.30;8.87;94947.94;4995282;28;19926;-85
2022/06/30 06:14:50;;;;;;;;;;;;;;;54.36;8.52;94957.03;4997488;28;19922;-85
2022/06/30 06:17:16;;;;;;;;;;;;;;;54.44;9.23;94957.97;5016540;23;20777;-85
2022/06/30 06:19:42;;;;;;;;;;;;;;;54.91;8.39;94955.09;4995712;28;19976;-85
2022/06/30 06:25:22;;;;;;;;;;;;;;;55.21;8.76;94952.28;4954433;28;19932;-85
2022/06/30 06:30:40;;;;;;;;;;;;;;;55.50;8.56;94961.13;4986391;28;19932;-86
2022/06/30 06:33:05;;;;;;;;;;;;;;;54.89;8.65;94954.09;5036772;23;19984;-85
2022/06/30 06:35:31;;;;;;;;;;;;;;;54.31;9.02;94949.44;5015554;28;19934;-86
2022/06/30 06:40:22;;;;;;;;;;;;;;;53.15;9.32;94941.06;5014390;23;20033;-85
2022/06/30 06:42:47;;;;;;;;;;;;;;;52.54;9.44;94943.88;5000239;28;20190;-85
2022/06/30 06:45:37;;;;;;;;;;;;;;;52.49;10.04;94939.84;4998070;28;19923;-84
2022/06/30 06:48:02;;;;;;;;;;;;;;;51.37;10.70;94931.16;4985825;28;19921;-84
2022/06/30 06:50:29;;;;;;;;;;;;;;;51.00;11.33;94931.94;4998724;28;19983;-83
2022/06/30 06:52:54;;;;;;;;;;;;;;;51.40;10.99;94921.84;4998294;28;19933;-84
2022/06/30 06:55:20;;;;;;;;;;;;;;;51.24;11.13;94933.59;4998585;28;20362;-84
2022/06/30 06:57:46;;;;;;;;;;;;;;;50.78;11.62;94915.19;4996673;28;19922;-83
2022/06/30 07:00:14;;;;;;;;;;;;;;;49.64;12.18;94921.31;4998914;28;19922;-83
2022/06/30 07:02:39;;;;;;;;;;;;;;;49.51;12.39;94924.44;4996183;28;20056;-82
2022/06/30 07:05:05;;;;;;;;;;;;;;;49.33;12.46;94919.19;4995892;28;20039;-83
2022/06/30 07:07:31;;;;;;;;;;;;;;;48.79;12.73;94919.38;4995118;28;20520;-81
2022/06/30 07:09:56;;;;;;;;;;;;;;;48.52;13.34;94914.94;4995985;28;20009;-83
2022/06/30 07:12:21;;;;;;;;;;;;;;;47.17;13.83;94910.81;4992785;28;20353;-83
2022/06/30 07:14:47;;;;;;;;;;;;;;;46.34;14.62;94908.34;4991602;28;19926;-83
2022/06/30 07:17:13;;;;;;;;;;;;;;;45.55;15.61;94915.72;4996412;28;19922;-84
2022/06/30 07:19:38;;;;;;;;;;;;;;;44.76;16.65;94909.09;4995895;28;19953;-80
2022/06/30 07:22:04;;;;;;;;;;;;;;;43.99;17.28;94923.25;4994883;28;19945;-80
2022/06/30 07:24:29;;;;;;;;;;;;;;;43.53;17.77;94921.34;4995721;28;19976;-80
2022/06/30 07:26:55;;;;;;;;;;;;;;;42.86;18.19;94911.34;4994558;28;19929;-79
2022/06/30 07:29:20;;;;;;;;;;;;;;;42.19;19.26;94912.16;4994988;28;20322;-80
2022/06/30 07:31:45;;;;;;;;;;;;;;;41.47;20.03;94907.03;4992825;28;20317;-80
2022/06/30 07:34:10;;;;;;;;;;;;;;;40.83;20.76;94911.28;4995724;28;19925;-80
2022/06/30 07:36:36;;;;;;;;;;;;;;;39.86;21.09;94917.91;4995922;28;19980;-80
2022/06/30 07:39:02;;;;;;;;;;;;;;;39.25;21.68;94920.19;4996844;28;19925;-79
2022/06/30 07:41:28;;;;;;;;;;;;;;;38.53;22.36;94911.50;4993956;28;19922;-80
2022/06/30 07:43:53;;;;;;;;;;;;;;;37.97;23.33;94909.09;4993792;28;19922;-79
2022/06/30 07:46:19;;;;;;;;;;;;;;;37.77;23.60;94906.22;4994450;28;19926;-80
2022/06/30 07:48:44;;;;;;;;;;;;;;;37.48;24.76;94907.66;4995827;28;19932;-80
2022/06/30 07:51:10;;;;;;;;;;;;;;;37.22;24.64;94896.22;4997251;28;19925;-80
2022/06/30 07:53:35;;;;;;;;;;;;;;;36.87;24.40;94905.41;4978014;28;19925;-80
2022/06/30 07:56:00;;;;;;;;;;;;;;;36.57;26.33;94905.19;4993106;28;19925;-79
2022/06/30 07:58:26;;;;;;;;;;;;;;;36.50;25.03;94902.56;4993725;28;20005;-80
2022/06/30 08:00:51;;;;;;;;;;;;;;;36.35;24.59;94905.34;4999241;28;19928;-79
2022/06/30 08:03:17;;;;;;;;;;;;;;;36.30;24.98;94900.31;4998855;28;20429;-79
2022/06/30 08:05:42;;;;;;;;;;;;;;;36.12;26.67;94910.44;4981650;28;19922;-79
2022/06/30 08:08:08;;;;;;;;;;;;;;;36.02;24.70;94903.91;4998298;28;20277;-81
2022/06/30 08:10:33;;;;;;;;;;;;;;;35.83;25.90;94906.28;5002097;28;19957;-80
2022/06/30 08:12:58;;;;;;;;;;;;;;;35.65;25.47;94903.63;5000154;28;19949;-82
2022/06/30 08:15:24;;;;;;;;;;;;;;;35.49;25.73;94901.34;5001793;28;19973;-81
2022/06/30 08:17:49;;;;;;;;;;;;;;;35.38;26.83;94906.00;5003058;28;19932;-81
2022/06/30 08:20:14;;;;;;;;;;;;;;;35.21;25.97;94899.41;5003180;28;19925;-84
2022/06/30 08:22:40;;;;;;;;;;;;;;;35.04;28.03;94898.25;4984358;28;19929;-81
2022/06/30 08:25:05;;;;;;;;;;;;;;;34.75;27.39;94893.97;5001724;28;20020;-81
2022/06/30 08:27:30;;;;;;;;;;;;;;;34.48;27.54;94899.72;5000013;28;19929;-82
2022/06/30 08:29:56;;;;;;;;;;;;;;;34.24;27.52;94900.41;4997741;28;19986;-83
2022/06/30 08:32:22;;;;;;;;;;;;;;;34.14;27.03;94901.13;5000846;28;19981;-87
2022/06/30 08:34:48;;;;;;;;;;;;;;;34.04;27.30;94902.66;5001096;28;19980;-86
2022/06/30 08:37:13;;;;;;;;;;;;;;;34.06;28.36;94899.56;4998946;28;19985;-84
2022/06/30 08:42:26;;;;;;;;;;;;;;;33.58;29.08;94907.78;4992045;28;19957;-84
2022/06/30 08:47:38;;;;;;;;;;;;;;;33.16;29.51;94903.63;4999502;28;19972;-83
2022/06/30 08:50:04;;;;;;;;;;;;;;;33.24;29.98;94902.53;5006666;28;19921;-83
2022/06/30 08:52:30;;;;;;;;;;;;;;;33.37;29.51;94903.06;4997566;28;19988;-82
2022/06/30 08:54:56;;;;;;;;;;;;;;;33.46;29.80;94905.41;4996730;28;19957;-84
2022/06/30 08:57:22;;;;;;;;;;;;;;;33.36;28.80;94904.97;4996373;28;19980;-84
2022/06/30 08:59:47;;;;;;;;;;;;;;;33.25;29.40;94906.78;4980787;28;19926;-82
2022/06/30 09:02:12;;;;;;;;;;;;;;;33.27;28.72;94904.47;5049953;23;20232;-83
2022/06/30 09:04:38;;;;;;;;;;;;;;;33.32;28.62;94908.75;5008566;28;19929;-83
2022/06/30 09:07:03;;;;;;;;;;;;;;;33.35;28.14;94898.00;5007286;28;19965;-83
2022/06/30 09:09:28;;;;;;;;;;;;;;;33.41;28.68;94899.22;5007868;28;20017;-83
2022/06/30 09:11:55;;;;;;;;;;;;;;;33.49;29.33;94900.03;5012480;28;20348;-83
2022/06/30 09:14:32;;;;;;;;;;;;;;;33.56;29.36;94893.91;5012632;28;19964;-83
2022/06/30 09:16:58;;;;;;;;;;;;;;;33.48;28.28;94892.31;5015649;28;19926;-83
2022/06/30 09:19:23;;;;;;;;;;;;;;;33.34;29.31;94885.69;5008059;28;19929;-83
2022/06/30 09:22:08;;;;;;;;;;;;;;;33.37;28.95;94886.88;5028918;23;19984;-83
2022/06/30 09:24:33;;;;;;;;;;;;;;;33.21;28.81;94883.66;5007115;28;19944;-83
2022/06/30 09:27:08;;;;;;;;;;;;;;;33.09;29.04;94882.03;5005426;28;20354;-83
2022/06/30 09:29:33;;;;;;;;;;;;;;;33.00;28.17;94881.56;5007056;28;19969;-82
2022/06/30 09:31:59;;;;;;;;;;;;;;;32.96;29.02;94884.22;5014649;28;19925;-83
2022/06/30 09:34:25;;;;;;;;;;;;;;;32.92;27.82;94877.28;4991577;28;19948;-82
2022/06/30 09:36:53;;;;;;;;;;;;;;;33.00;28.35;94878.88;4999685;23;20028;-83
2022/06/30 09:39:19;;;;;;;;;;;;;;;33.01;27.92;94881.19;4996294;28;19945;-83
2022/06/30 09:41:45;;;;;;;;;;;;;;;32.94;27.36;94869.59;4997150;28;19922;-83
2022/06/30 09:44:16;;;;;;;;;;;;;;;32.92;28.28;94878.06;4995348;28;20054;-83
2022/06/30 09:46:54;;;;;;;;;;;;;;;32.97;28.59;94876.94;4996720;28;19925;-83
2022/06/30 09:49:27;;;;;;;;;;;;;;;32.96;28.05;94872.69;5015438;23;19982;-83
2022/06/30 09:51:52;;;;;;;;;;;;;;;32.97;28.09;94874.22;5007949;28;19979;-83
2022/06/30 09:54:18;;;;;;;;;;;;;;;32.92;28.40;94874.59;5009025;28;19921;-83
2022/06/30 09:56:44;;;;;;;;;;;;;;;32.79;27.63;94864.06;5017317;23;20384;-83
2022/06/30 09:59:10;;;;;;;;;;;;;;;32.78;28.49;94862.50;5004050;28;19949;-83
2022/06/30 10:01:51;;;;;;;;;;;;;;;32.81;29.31;94869.88;5005031;28;19922;-82
2022/06/30 10:04:17;;;;;;;;;;;;;;;32.70;27.75;94866.28;5004368;28;19921;-83
2022/06/30 10:06:42;;;;;;;;;;;;;;;32.62;28.39;94861.22;5023147;28;20011;-82
2022/06/30 10:09:07;;;;;;;;;;;;;;;32.55;27.94;94861.94;5006623;28;19932;-83
2022/06/30 10:11:42;;;;;;;;;;;;;;;32.49;28.67;94872.25;5005807;28;19926;-83
2022/06/30 10:14:07;;;;;;;;;;;;;;;32.29;28.62;94862.06;5005005;28;20004;-81
2022/06/30 10:16:33;;;;;;;;;;;;;;;32.13;28.84;94852.25;5005070;28;20519;-82
2022/06/30 10:18:58;;;;;;;;;;;;;;;32.14;28.04;94856.50;5006807;28;20387;-82
2022/06/30 10:21:24;;;;;;;;;;;;;;;32.16;28.50;94864.19;5005319;28;19933;-82
2022/06/30 10:23:49;;;;;;;;;;;;;;;31.95;27.61;94856.66;5005001;28;19929;-82
2022/06/30 10:28:58;;;;;;;;;;;;;;;31.97;27.61;94854.38;5003725;28;19931;-82
2022/06/30 10:31:26;;;;;;;;;;;;;;;31.91;27.79;94848.56;5005432;28;19930;-82
2022/06/30 10:34:10;;;;;;;;;;;;;;;31.89;26.96;94845.47;5003182;28;19921;-82
2022/06/30 10:36:43;;;;;;;;;;;;;;;31.81;26.99;94854.59;5004520;28;19985;-82
2022/06/30 10:39:11;;;;;;;;;;;;;;;31.56;27.52;94846.16;5004057;28;19933;-82
2022/06/30 10:41:43;;;;;;;;;;;;;;;31.37;27.55;94840.94;5003016;28;19929;-83
2022/06/30 10:44:08;;;;;;;;;;;;;;;31.38;26.54;94836.31;5004438;28;19983;-82
2022/06/30 10:46:34;;;;;;;;;;;;;;;31.49;26.91;94829.97;5004272;28;19925;-83
2022/06/30 10:48:59;;;;;;;;;;;;;;;31.42;26.44;94831.78;5004502;28;20025;-82
2022/06/30 10:51:25;;;;;;;;;;;;;;;31.15;26.49;94825.63;5005769;28;19926;-83
2022/06/30 10:53:52;;;;;;;;;;;;;;;31.11;25.67;94819.44;5004666;28;19925;-82
2022/06/30 10:56:17;;;;;;;;;;;;;;;31.11;26.30;94835.56;5011288;28;19984;-83
2022/06/30 10:59:01;;;;;;;;;;;;;;;31.09;31.72;94824.41;5017227;28;19933;-86
2022/06/30 11:01:27;;;;;;;;;;;;;;;31.14;30.71;94824.09;5013596;28;19932;-84
2022/06/30 11:03:52;;;;;;;;;;;;;;;31.05;26.14;94822.41;5015171;28;19921;-84
2022/06/30 11:06:17;;;;;;;;;;;;;;;31.05;27.34;94813.59;5005850;28;19921;-84
2022/06/30 11:08:50;;;;;;;;;;;;;;;30.98;27.05;94814.28;5006332;28;20016;-85
2022/06/30 11:11:22;;;;;;;;;;;;;;;30.98;26.63;94816.97;5013452;28;22090;-85
2022/06/30 11:14:00;;;;;;;;;;;;;;;30.95;29.06;94809.63;5006272;28;19926;-85
2022/06/30 11:16:25;;;;;;;;;;;;;;;30.91;28.33;94808.00;5006272;28;20550;-85
2022/06/30 11:18:51;;;;;;;;;;;;;;;30.94;27.63;94804.63;5003421;28;19922;-85
2022/06/30 11:21:16;;;;;;;;;;;;;;;30.93;27.71;94801.16;5006320;28;19971;-85
2022/06/30 11:23:45;;;;;;;;;;;;;;;30.90;26.62;94796.50;5007295;28;19937;-83
2022/06/30 11:28:55;;;;;;;;;;;;;;;30.76;27.12;94785.56;5004573;28;19976;-85
2022/06/30 11:31:41;;;;;;;;;;;;;;;30.70;27.54;94803.09;5011383;28;19925;-85
2022/06/30 11:34:08;;;;;;;;;;;;;;;30.58;25.84;94793.28;5028315;28;19922;-85
2022/06/30 11:36:35;;;;;;;;;;;;;;;30.66;30.15;94792.31;5006392;28;19921;-85
2022/06/30 11:39:04;;;;;;;;;;;;;;;30.66;27.36;94780.81;5005445;28;20404;-84
2022/06/30 11:44:13;;;;;;;;;;;;;;;30.70;27.73;94789.69;4999605;28;19983;-83
2022/06/30 11:46:55;;;;;;;;;;;;;;;30.63;27.34;94787.66;4998320;28;20371;-83
2022/06/30 11:49:21;;;;;;;;;;;;;;;30.70;29.40;94792.34;5001671;28;19925;-84
2022/06/30 11:51:46;;;;;;;;;;;;;;;30.65;27.40;94795.34;5004176;28;19997;-84
2022/06/30 11:54:12;;;;;;;;;;;;;;;30.66;27.04;94788.84;5005761;28;19925;-85
2022/06/30 11:56:48;;;;;;;;;;;;;;;30.63;26.76;94784.97;5001074;28;19984;-85
2022/06/30 11:59:13;;;;;;;;;;;;;;;30.69;28.19;94780.84;5010802;28;19929;-82
2022/06/30 12:01:39;;;;;;;;;;;;;;;30.68;27.68;94781.22;5026482;28;20612;-82
2022/06/30 12:04:14;;;;;;;;;;;;;;;30.72;28.52;94773.97;5005405;28;19922;-83
2022/06/30 12:06:40;;;;;;;;;;;;;;;30.67;27.48;94766.25;5004298;28;19925;-83
2022/06/30 12:09:05;;;;;;;;;;;;;;;30.67;27.20;94771.63;5002488;28;19922;-83
2022/06/30 12:11:31;;;;;;;;;;;;;;;30.63;27.87;94765.41;5005475;28;20385;-83
2022/06/30 12:13:56;;;;;;;;;;;;;;;30.63;26.69;94765.41;5002952;28;20444;-83
2022/06/30 12:16:21;;;;;;;;;;;;;;;30.61;25.47;94764.97;5005613;28;20000;-83
2022/06/30 12:18:47;;;;;;;;;;;;;;;30.63;27.45;94766.19;5002444;28;20420;-83
2022/06/30 12:21:12;;;;;;;;;;;;;;;30.69;27.47;94764.75;5004315;28;19929;-83
2022/06/30 12:23:39;;;;;;;;;;;;;;;30.75;28.36;94757.16;5002919;28;19925;-84
2022/06/30 12:26:06;;;;;;;;;;;;;;;30.58;25.45;94754.94;5004124;28;19922;-83
2022/06/30 12:28:44;;;;;;;;;;;;;;;30.57;26.02;94746.13;4983083;28;19921;-83
2022/06/30 12:31:09;;;;;;;;;;;;;;;30.63;27.19;94755.47;5000016;28;20329;-83
2022/06/30 12:33:39;;;;;;;;;;;;;;;30.53;25.90;94747.22;5017872;28;19926;-83
2022/06/30 12:36:04;;;;;;;;;;;;;;;30.54;26.17;94754.91;5011808;28;20052;-81
2022/06/30 12:38:29;;;;;;;;;;;;;;;30.53;28.25;94744.53;5003032;28;19933;-83
2022/06/30 12:40:55;;;;;;;;;;;;;;;30.57;26.00;94745.34;5010622;28;19935;-81
2022/06/30 12:43:20;;;;;;;;;;;;;;;30.61;26.29;94741.59;5004338;28;19922;-83
2022/06/30 12:46:01;;;;;;;;;;;;;;;30.67;29.95;94745.53;5007456;28;19921;-85
2022/06/30 12:48:42;;;;;;;;;;;;;;;30.66;26.98;94735.16;5008116;28;19921;-84
2022/06/30 12:51:08;;;;;;;;;;;;;;;30.66;27.44;94732.50;5011989;28;19933;-84
2022/06/30 12:53:34;;;;;;;;;;;;;;;30.67;26.75;94734.81;5008298;28;19925;-84
2022/06/30 12:56:00;;;;;;;;;;;;;;;30.68;27.09;94739.03;5008012;28;19921;-84
2022/06/30 12:58:26;;;;;;;;;;;;;;;30.63;26.50;94734.00;5007852;28;19945;-85
2022/06/30 13:00:55;;;;;;;;;;;;;;;30.65;24.10;94725.56;5007577;28;20362;-83
2022/06/30 13:03:20;;;;;;;;;;;;;;;30.61;23.48;94724.72;5005276;28;19926;-84
2022/06/30 13:05:45;;;;;;;;;;;;;;;30.62;23.62;94721.72;5005767;28;19932;-86
2022/06/30 13:08:11;;;;;;;;;;;;;;;30.64;25.61;94724.81;5009348;28;20393;-86
2022/06/30 13:13:44;;;;;;;;;;;;;;;30.75;27.62;94719.56;5004789;28;20029;-86
2022/06/30 13:16:09;;;;;;;;;;;;;;;30.80;27.67;94713.13;5015661;28;19928;-86
2022/06/30 13:18:34;;;;;;;;;;;;;;;30.80;27.94;94710.44;5013396;28;20648;-86
2022/06/30 13:21:00;;;;;;;;;;;;;;;30.70;28.79;94714.50;5016909;28;19922;-85
2022/06/30 13:23:25;;;;;;;;;;;;;;;30.69;28.00;94711.06;5007135;28;19925;-86
2022/06/30 13:25:50;;;;;;;;;;;;;;;30.64;28.14;94702.56;5007099;28;19937;-86
2022/06/30 13:28:16;;;;;;;;;;;;;;;30.61;27.02;94714.75;5007594;28;19984;-86
2022/06/30 13:30:41;;;;;;;;;;;;;;;30.56;27.04;94706.22;5012682;28;20297;-86
2022/06/30 13:33:06;;;;;;;;;;;;;;;30.61;27.68;94698.66;5008156;28;19925;-86